sensor_id;sensor_type;location;lat;lon;timestamp;pressure;altitude;pressure_sealevel;temperature;humidity
53116;BME280;39010;48.088;7.954;2022-10-14T00:00:31;98843.56;;;11.85;100.00
53116;BME280;39010;48.088;7.954;2022-10-14T00:02:57;98840.50;;;11.88;100.00
53116;BME280;39010;48.088;7.954;2022-10-14T00:05:24;98838.38;;;11.83;100.00
53116;BME280;39010;48.088;7.954;2022-10-14T00:07:51;98844.41;;;11.85;100.00
53116;BME280;39010;48.088;7.954;2022-10-14T00:10:17;98846.81;;;11.80;100.00
53116;BME280;39010;48.088;7.954;2022-10-14T00:12:44;98833.53;;;11.78;100.00
53116;BME280;39010;48.088;7.954;2022-10-14T00:15:12;98843.28;;;11.79;100.00
53116;BME280;39010;48.088;7.954;2022-10-14T00:17:39;98846.97;;;11.78;100.00
53116;BME280;39010;48.088;7.954;2022-10-14T00:20:06;98841.59;;;11.78;100.00
53116;BME280;39010;48.088;7.954;2022-10-14T00:22:33;98841.97;;;11.75;100.00
53116;BME280;39010;48.088;7.954;2022-10-14T00:24:59;98838.09;;;11.78;100.00
53116;BME280;39010;48.088;7.954;2022-10-14T00:27:27;98838.75;;;11.80;100.00
53116;BME280;39010;48.088;7.954;2022-10-14T00:29:53;98833.91;;;11.75;100.00
53116;BME280;39010;48.088;7.954;2022-10-14T00:32:20;98828.44;;;11.84;100.00
53116;BME280;39010;48.088;7.954;2022-10-14T00:34:49;98823.81;;;11.77;100.00
53116;BME280;39010;48.088;7.954;2022-10-14T00:37:15;98827.50;;;11.76;100.00
53116;BME280;39010;48.088;7.954;2022-10-14T00:39:42;98825.47;;;11.78;100.00
53116;BME280;39010;48.088;7.954;2022-10-14T00:42:13;98821.31;;;11.76;100.00
53116;BME280;39010;48.088;7.954;2022-10-14T00:47:10;98814.44;;;11.73;100.00
53116;BME280;39010;48.088;7.954;2022-10-14T00:49:40;98815.94;;;11.76;100.00
53116;BME280;39010;48.088;7.954;2022-10-14T00:52:13;98825.03;;;11.75;100.00
53116;BME280;39010;48.088;7.954;2022-10-14T00:54:49;98824.81;;;11.76;100.00
53116;BME280;39010;48.088;7.954;2022-10-14T00:57:16;98815.72;;;11.77;100.00
53116;BME280;39010;48.088;7.954;2022-10-14T00:59:43;98809.06;;;11.73;100.00
53116;BME280;39010;48.088;7.954;2022-10-14T01:02:10;98815.09;;;11.75;100.00
53116;BME280;39010;48.088;7.954;2022-10-14T01:04:38;98822.59;;;11.80;100.00
53116;BME280;39010;48.088;7.954;2022-10-14T01:07:30;98822.50;;;11.73;100.00
53116;BME280;39010;48.088;7.954;2022-10-14T01:10:06;98819.63;;;11.75;100.00
53116;BME280;39010;48.088;7.954;2022-10-14T01:13:01;98815.09;;;11.75;100.00
53116;BME280;39010;48.088;7.954;2022-10-14T01:15:53;98814.91;;;11.77;100.00
53116;BME280;39010;48.088;7.954;2022-10-14T01:18:47;98819.44;;;11.76;100.00
53116;BME280;39010;48.088;7.954;2022-10-14T01:21:41;98817.78;;;11.75;100.00
53116;BME280;39010;48.088;7.954;2022-10-14T01:32:26;98808.03;;;11.74;100.00
53116;BME280;39010;48.088;7.954;2022-10-14T01:35:09;98815.09;;;11.75;100.00
53116;BME280;39010;48.088;7.954;2022-10-14T01:37:45;98811.19;;;11.78;100.00
53116;BME280;39010;48.088;7.954;2022-10-14T01:40:25;98816.94;;;11.75;100.00
53116;BME280;39010;48.088;7.954;2022-10-14T01:42:55;98804.31;;;11.75;100.00
53116;BME280;39010;48.088;7.954;2022-10-14T01:45:25;98804.53;;;11.74;100.00
53116;BME280;39010;48.088;7.954;2022-10-14T01:47:56;98800.25;;;11.79;100.00
53116;BME280;39010;48.088;7.954;2022-10-14T01:50:28;98799.88;;;11.83;100.00
53116;BME280;39010;48.088;7.954;2022-10-14T01:53:06;98798.19;;;11.82;100.00
53116;BME280;39010;48.088;7.954;2022-10-14T01:55:38;98800.06;;;11.81;100.00
53116;BME280;39010;48.088;7.954;2022-10-14T01:58:06;98800.25;;;11.79;100.00
53116;BME280;39010;48.088;7.954;2022-10-14T02:00:34;98798.56;;;11.78;100.00
53116;BME280;39010;48.088;7.954;2022-10-14T02:03:01;98796.25;;;11.90;100.00
53116;BME280;39010;48.088;7.954;2022-10-14T02:05:32;98796.53;;;11.81;100.00
53116;BME280;39010;48.088;7.954;2022-10-14T02:08:21;98791.53;;;11.77;100.00
53116;BME280;39010;48.088;7.954;2022-10-14T02:11:24;98773.06;;;11.74;100.00
53116;BME280;39010;48.088;7.954;2022-10-14T02:14:03;98773.06;;;11.74;100.00
53116;BME280;39010;48.088;7.954;2022-10-14T02:16:45;98767.03;;;11.72;100.00
53116;BME280;39010;48.088;7.954;2022-10-14T02:19:22;98755.25;;;11.73;100.00
53116;BME280;39010;48.088;7.954;2022-10-14T02:22:01;98749.25;;;11.71;100.00
53116;BME280;39010;48.088;7.954;2022-10-14T02:24:36;98743.88;;;11.71;100.00
53116;BME280;39010;48.088;7.954;2022-10-14T02:27:08;98756.13;;;11.74;100.00
53116;BME280;39010;48.088;7.954;2022-10-14T02:29:37;98739.97;;;11.74;100.00
53116;BME280;39010;48.088;7.954;2022-10-14T02:32:06;98742.03;;;11.72;100.00
53116;BME280;39010;48.088;7.954;2022-10-14T02:34:36;98738.31;;;11.73;100.00
53116;BME280;39010;48.088;7.954;2022-10-14T02:37:07;98733.75;;;11.73;100.00
53116;BME280;39010;48.088;7.954;2022-10-14T02:39:36;98735.63;;;11.73;100.00
53116;BME280;39010;48.088;7.954;2022-10-14T02:42:05;98730.50;;;11.78;100.00
53116;BME280;39010;48.088;7.954;2022-10-14T02:44:33;98726.16;;;11.77;100.00
53116;BME280;39010;48.088;7.954;2022-10-14T02:46:59;98735.69;;;11.79;100.00
53116;BME280;39010;48.088;7.954;2022-10-14T02:49:27;98727.06;;;11.84;100.00
53116;BME280;39010;48.088;7.954;2022-10-14T02:51:54;98725.41;;;11.83;100.00
53116;BME280;39010;48.088;7.954;2022-10-14T02:54:20;98723.91;;;11.81;100.00
53116;BME280;39010;48.088;7.954;2022-10-14T02:56:47;98709.06;;;11.85;100.00
53116;BME280;39010;48.088;7.954;2022-10-14T02:59:13;98720.09;;;11.90;100.00
53116;BME280;39010;48.088;7.954;2022-10-14T03:01:41;98708.25;;;11.84;100.00
53116;BME280;39010;48.088;7.954;2022-10-14T03:04:08;98713.41;;;11.86;100.00
53116;BME280;39010;48.088;7.954;2022-10-14T03:06:35;98717.13;;;11.85;100.00
53116;BME280;39010;48.088;7.954;2022-10-14T03:09:02;98716.50;;;11.83;100.00
53116;BME280;39010;48.088;7.954;2022-10-14T03:11:32;98716.13;;;11.86;100.00
53116;BME280;39010;48.088;7.954;2022-10-14T03:14:03;98713.25;;;11.87;100.00
53116;BME280;39010;48.088;7.954;2022-10-14T03:16:30;98703.94;;;11.90;100.00
53116;BME280;39010;48.088;7.954;2022-10-14T03:18:57;98711.47;;;11.94;100.00
53116;BME280;39010;48.088;7.954;2022-10-14T03:21:37;98701.47;;;11.88;100.00
53116;BME280;39010;48.088;7.954;2022-10-14T03:24:08;98697.50;;;11.84;100.00
53116;BME280;39010;48.088;7.954;2022-10-14T03:26:35;98696.84;;;11.82;100.00
53116;BME280;39010;48.088;7.954;2022-10-14T03:29:01;98705.34;;;11.86;100.00
53116;BME280;39010;48.088;7.954;2022-10-14T03:31:45;98699.31;;;11.84;100.00
53116;BME280;39010;48.088;7.954;2022-10-14T03:34:31;98694.16;;;11.82;100.00
53116;BME280;39010;48.088;7.954;2022-10-14T03:37:11;98694.09;;;11.97;100.00
53116;BME280;39010;48.088;7.954;2022-10-14T03:39:44;98693.56;;;11.87;100.00
53116;BME280;39010;48.088;7.954;2022-10-14T03:42:12;98690.25;;;11.85;100.00
53116;BME280;39010;48.088;7.954;2022-10-14T03:44:43;98688.56;;;11.84;100.00
53116;BME280;39010;48.088;7.954;2022-10-14T03:47:16;98689.59;;;11.83;100.00
53116;BME280;39010;48.088;7.954;2022-10-14T03:49:44;98687.75;;;11.83;100.00
53116;BME280;39010;48.088;7.954;2022-10-14T03:52:21;98687.00;;;11.89;100.00
53116;BME280;39010;48.088;7.954;2022-10-14T03:54:58;98687.00;;;11.89;100.00
53116;BME280;39010;48.088;7.954;2022-10-14T03:57:26;98684.94;;;11.91;100.00
53116;BME280;39010;48.088;7.954;2022-10-14T03:59:55;98674.38;;;11.90;100.00
53116;BME280;39010;48.088;7.954;2022-10-14T04:02:27;98680.38;;;11.92;100.00
53116;BME280;39010;48.088;7.954;2022-10-14T04:04:56;98676.22;;;11.89;100.00
53116;BME280;39010;48.088;7.954;2022-10-14T04:07:27;98668.34;;;11.88;100.00
53116;BME280;39010;48.088;7.954;2022-10-14T04:09:56;98670.84;;;11.89;100.00
53116;BME280;39010;48.088;7.954;2022-10-14T04:12:22;98665.47;;;11.89;100.00
53116;BME280;39010;48.088;7.954;2022-10-14T04:15:12;98661.00;;;11.97;100.00
53116;BME280;39010;48.088;7.954;2022-10-14T04:17:57;98658.94;;;11.99;100.00
53116;BME280;39010;48.088;7.954;2022-10-14T04:20:24;98650.31;;;12.03;100.00
53116;BME280;39010;48.088;7.954;2022-10-14T04:22:52;98652.72;;;11.98;100.00
53116;BME280;39010;48.088;7.954;2022-10-14T04:25:20;98644.84;;;11.97;100.00
53116;BME280;39010;48.088;7.954;2022-10-14T04:27:51;98647.72;;;11.95;100.00
53116;BME280;39010;48.088;7.954;2022-10-14T04:30:18;98636.44;;;12.00;100.00
53116;BME280;39010;48.088;7.954;2022-10-14T04:32:50;98632.06;;;11.99;100.00
53116;BME280;39010;48.088;7.954;2022-10-14T04:35:17;98630.75;;;11.94;100.00
53116;BME280;39010;48.088;7.954;2022-10-14T04:37:49;98633.63;;;11.93;100.00
53116;BME280;39010;48.088;7.954;2022-10-14T04:40:19;98626.84;;;11.97;100.00
53116;BME280;39010;48.088;7.954;2022-10-14T04:42:55;98623.13;;;11.98;100.00
53116;BME280;39010;48.088;7.954;2022-10-14T04:45:27;98620.56;;;12.05;100.00
53116;BME280;39010;48.088;7.954;2022-10-14T04:47:59;98619.28;;;12.01;100.00
53116;BME280;39010;48.088;7.954;2022-10-14T04:50:26;98615.91;;;11.99;100.00
53116;BME280;39010;48.088;7.954;2022-10-14T04:53:11;98612.75;;;11.95;100.00
53116;BME280;39010;48.088;7.954;2022-10-14T04:55:56;98607.84;;;11.99;100.00
53116;BME280;39010;48.088;7.954;2022-10-14T04:58:22;98609.25;;;11.94;100.00
53116;BME280;39010;48.088;7.954;2022-10-14T05:00:49;98606.34;;;11.96;100.00
53116;BME280;39010;48.088;7.954;2022-10-14T05:03:24;98598.47;;;11.94;100.00
53116;BME280;39010;48.088;7.954;2022-10-14T05:05:51;98590.22;;;11.96;100.00
53116;BME280;39010;48.088;7.954;2022-10-14T05:08:18;98585.47;;;11.98;100.00
53116;BME280;39010;48.088;7.954;2022-10-14T05:10:48;98586.38;;;12.05;100.00
53116;BME280;39010;48.088;7.954;2022-10-14T05:13:28;98578.53;;;12.04;100.00
53116;BME280;39010;48.088;7.954;2022-10-14T05:16:00;98584.09;;;12.02;100.00
53116;BME280;39010;48.088;7.954;2022-10-14T05:18:28;98580.38;;;12.03;100.00
53116;BME280;39010;48.088;7.954;2022-10-14T05:20:59;98588.81;;;12.00;100.00
53116;BME280;39010;48.088;7.954;2022-10-14T05:23:38;98585.47;;;11.98;100.00
53116;BME280;39010;48.088;7.954;2022-10-14T05:26:05;98587.63;;;12.03;100.00
53116;BME280;39010;48.088;7.954;2022-10-14T05:28:32;98579.94;;;12.00;100.00
53116;BME280;39010;48.088;7.954;2022-10-14T05:30:59;98583.06;;;12.03;100.00
53116;BME280;39010;48.088;7.954;2022-10-14T05:33:26;98578.31;;;12.05;100.00
53116;BME280;39010;48.088;7.954;2022-10-14T05:35:52;98580.63;;;12.08;100.00
53116;BME280;39010;48.088;7.954;2022-10-14T05:38:30;98578.16;;;12.07;100.00
53116;BME280;39010;48.088;7.954;2022-10-14T05:40:58;98579.59;;;12.10;100.00
53116;BME280;39010;48.088;7.954;2022-10-14T05:43:25;98581.66;;;12.07;100.00
53116;BME280;39010;48.088;7.954;2022-10-14T05:45:59;98577.53;;;12.12;100.00
53116;BME280;39010;48.088;7.954;2022-10-14T05:48:27;98581.91;;;12.13;100.00
53116;BME280;39010;48.088;7.954;2022-10-14T05:50:55;98572.63;;;12.15;100.00
53116;BME280;39010;48.088;7.954;2022-10-14T05:53:27;98577.16;;;12.15;100.00
53116;BME280;39010;48.088;7.954;2022-10-14T05:56:03;98571.38;;;12.18;100.00
53116;BME280;39010;48.088;7.954;2022-10-14T05:58:31;98566.78;;;12.12;100.00
53116;BME280;39010;48.088;7.954;2022-10-14T06:00:59;98572.81;;;12.14;100.00
53116;BME280;39010;48.088;7.954;2022-10-14T06:03:26;98562.69;;;12.16;100.00
53116;BME280;39010;48.088;7.954;2022-10-14T06:05:54;98562.38;;;12.26;100.00
53116;BME280;39010;48.088;7.954;2022-10-14T06:08:21;98572.03;;;12.20;100.00
53116;BME280;39010;48.088;7.954;2022-10-14T06:10:48;98569.28;;;12.13;100.00
53116;BME280;39010;48.088;7.954;2022-10-14T06:13:15;98568.91;;;12.16;100.00
53116;BME280;39010;48.088;7.954;2022-10-14T06:15:44;98562.94;;;12.21;100.00
53116;BME280;39010;48.088;7.954;2022-10-14T06:18:10;98567.66;;;12.19;100.00
53116;BME280;39010;48.088;7.954;2022-10-14T06:20:37;98561.66;;;12.17;100.00
53116;BME280;39010;48.088;7.954;2022-10-14T06:23:04;98562.28;;;12.19;100.00
53116;BME280;39010;48.088;7.954;2022-10-14T06:25:30;98560.63;;;12.18;100.00
53116;BME280;39010;48.088;7.954;2022-10-14T06:28:02;98558.16;;;12.16;100.00
53116;BME280;39010;48.088;7.954;2022-10-14T06:30:29;98556.47;;;12.15;100.00
53116;BME280;39010;48.088;7.954;2022-10-14T06:32:55;98562.28;;;12.19;100.00
53116;BME280;39010;48.088;7.954;2022-10-14T06:35:22;98571.59;;;12.16;100.00
53116;BME280;39010;48.088;7.954;2022-10-14T06:37:48;98566.66;;;12.20;100.00
53116;BME280;39010;48.088;7.954;2022-10-14T06:40:15;98563.97;;;12.20;100.00
53116;BME280;39010;48.088;7.954;2022-10-14T06:42:41;98572.03;;;12.20;100.00
53116;BME280;39010;48.088;7.954;2022-10-14T06:45:08;98572.25;;;12.18;100.00
53116;BME280;39010;48.088;7.954;2022-10-14T06:47:35;98571.00;;;12.21;100.00
53116;BME280;39010;48.088;7.954;2022-10-14T06:50:01;98567.16;;;12.30;100.00
53116;BME280;39010;48.088;7.954;2022-10-14T06:52:28;98568.94;;;12.23;100.00
53116;BME280;39010;48.088;7.954;2022-10-14T06:54:54;98570.63;;;12.24;100.00
53116;BME280;39010;48.088;7.954;2022-10-14T06:57:21;98576.47;;;12.28;100.00
53116;BME280;39010;48.088;7.954;2022-10-14T06:59:47;98574.81;;;12.33;100.00
53116;BME280;39010;48.088;7.954;2022-10-14T07:02:14;98579.41;;;12.33;100.00
53116;BME280;39010;48.088;7.954;2022-10-14T07:04:41;98581.88;;;12.34;100.00
53116;BME280;39010;48.088;7.954;2022-10-14T07:07:08;98579.00;;;12.36;100.00
53116;BME280;39010;48.088;7.954;2022-10-14T07:09:35;98584.19;;;12.37;100.00
53116;BME280;39010;48.088;7.954;2022-10-14T07:12:01;98580.25;;;12.40;100.00
53116;BME280;39010;48.088;7.954;2022-10-14T07:14:28;98569.53;;;12.47;100.00
53116;BME280;39010;48.088;7.954;2022-10-14T07:16:54;98580.31;;;12.47;100.00
53116;BME280;39010;48.088;7.954;2022-10-14T07:19:20;98579.72;;;12.51;100.00
53116;BME280;39010;48.088;7.954;2022-10-14T07:21:47;98577.88;;;12.52;100.00
53116;BME280;39010;48.088;7.954;2022-10-14T07:24:13;98588.50;;;12.60;100.00
53116;BME280;39010;48.088;7.954;2022-10-14T07:26:40;98584.53;;;12.56;100.00
53116;BME280;39010;48.088;7.954;2022-10-14T07:29:07;98591.75;;;12.56;100.00
53116;BME280;39010;48.088;7.954;2022-10-14T07:31:33;98586.44;;;12.62;100.00
53116;BME280;39010;48.088;7.954;2022-10-14T07:34:00;98591.19;;;12.60;100.00
53116;BME280;39010;48.088;7.954;2022-10-14T07:36:29;98580.44;;;12.67;100.00
53116;BME280;39010;48.088;7.954;2022-10-14T07:38:56;98575.28;;;12.65;100.00
53116;BME280;39010;48.088;7.954;2022-10-14T07:41:23;98587.06;;;12.64;100.00
53116;BME280;39010;48.088;7.954;2022-10-14T07:43:53;98587.06;;;12.64;100.00
53116;BME280;39010;48.088;7.954;2022-10-14T07:46:23;98586.03;;;12.65;100.00
53116;BME280;39010;48.088;7.954;2022-10-14T07:51:38;98581.72;;;12.71;100.00
53116;BME280;39010;48.088;7.954;2022-10-14T07:54:08;98585.66;;;12.69;100.00
53116;BME280;39010;48.088;7.954;2022-10-14T07:56:39;98586.06;;;12.72;100.00
53116;BME280;39010;48.088;7.954;2022-10-14T07:59:06;98585.88;;;12.74;100.00
53116;BME280;39010;48.088;7.954;2022-10-14T08:01:32;98584.84;;;12.75;100.00
53116;BME280;39010;48.088;7.954;2022-10-14T08:03:59;98585.03;;;12.73;100.00
53116;BME280;39010;48.088;7.954;2022-10-14T08:06:25;98578.84;;;12.73;100.00
53116;BME280;39010;48.088;7.954;2022-10-14T08:08:51;98579.41;;;12.68;100.00
53116;BME280;39010;48.088;7.954;2022-10-14T08:11:27;98577.56;;;12.69;100.00
53116;BME280;39010;48.088;7.954;2022-10-14T08:13:54;98585.16;;;12.58;100.00
53116;BME280;39010;48.088;7.954;2022-10-14T08:16:25;98593.50;;;12.70;100.00
53116;BME280;39010;48.088;7.954;2022-10-14T08:18:54;98582.31;;;12.66;100.00
53116;BME280;39010;48.088;7.954;2022-10-14T08:21:21;98593.72;;;12.69;100.00
53116;BME280;39010;48.088;7.954;2022-10-14T08:23:47;98585.66;;;12.69;100.00
53116;BME280;39010;48.088;7.954;2022-10-14T08:26:19;98582.81;;;12.77;100.00
53116;BME280;39010;48.088;7.954;2022-10-14T08:28:47;98576.78;;;12.75;100.00
53116;BME280;39010;48.088;7.954;2022-10-14T08:31:14;98590.72;;;12.85;100.00
53116;BME280;39010;48.088;7.954;2022-10-14T08:33:40;98587.41;;;12.83;100.00
53116;BME280;39010;48.088;7.954;2022-10-14T08:36:07;98587.41;;;12.83;100.00
53116;BME280;39010;48.088;7.954;2022-10-14T08:38:34;98593.81;;;12.82;100.00
53116;BME280;39010;48.088;7.954;2022-10-14T08:41:21;98585.13;;;12.87;100.00
53116;BME280;39010;48.088;7.954;2022-10-14T08:44:22;98590.34;;;12.88;100.00
53116;BME280;39010;48.088;7.954;2022-10-14T08:46:55;98594.47;;;12.91;100.00
53116;BME280;39010;48.088;7.954;2022-10-14T08:52:17;98582.31;;;13.02;100.00
53116;BME280;39010;48.088;7.954;2022-10-14T08:55:03;98587.94;;;13.07;100.00
53116;BME280;39010;48.088;7.954;2022-10-14T08:57:37;98576.53;;;13.05;100.00
53116;BME280;39010;48.088;7.954;2022-10-14T09:00:09;98589.22;;;13.11;100.00
53116;BME280;39010;48.088;7.954;2022-10-14T09:02:43;98578.66;;;13.16;100.00
53116;BME280;39010;48.088;7.954;2022-10-14T09:05:16;98573.28;;;13.23;100.00
53116;BME280;39010;48.088;7.954;2022-10-14T09:07:44;98577.25;;;13.34;100.00
53116;BME280;39010;48.088;7.954;2022-10-14T09:10:28;98582.03;;;13.32;100.00
53116;BME280;39010;48.088;7.954;2022-10-14T09:12:59;98580.59;;;13.36;100.00
53116;BME280;39010;48.088;7.954;2022-10-14T09:15:33;98575.59;;;13.33;100.00
53116;BME280;39010;48.088;7.954;2022-10-14T09:18:20;98577.88;;;13.36;100.00
53116;BME280;39010;48.088;7.954;2022-10-14T09:20:48;98580.44;;;13.44;100.00
53116;BME280;39010;48.088;7.954;2022-10-14T09:23:20;98572.09;;;13.39;100.00
53116;BME280;39010;48.088;7.954;2022-10-14T09:25:54;98572.16;;;13.46;100.00
53116;BME280;39010;48.088;7.954;2022-10-14T09:28:27;98562.63;;;13.50;100.00
53116;BME280;39010;48.088;7.954;2022-10-14T09:30:56;98565.56;;;13.55;100.00
53116;BME280;39010;48.088;7.954;2022-10-14T09:33:22;98576.34;;;13.55;100.00
53116;BME280;39010;48.088;7.954;2022-10-14T09:35:51;98564.34;;;13.64;100.00
53116;BME280;39010;48.088;7.954;2022-10-14T09:38:18;98569.94;;;13.69;100.00
53116;BME280;39010;48.088;7.954;2022-10-14T09:40:51;98569.53;;;13.73;100.00
53116;BME280;39010;48.088;7.954;2022-10-14T09:43:21;98554.38;;;13.72;100.00
53116;BME280;39010;48.088;7.954;2022-10-14T09:45:59;98554.38;;;13.78;100.00
53116;BME280;39010;48.088;7.954;2022-10-14T09:48:31;98562.06;;;13.81;100.00
53116;BME280;39010;48.088;7.954;2022-10-14T09:51:00;98554.41;;;13.85;100.00
53116;BME280;39010;48.088;7.954;2022-10-14T09:53:36;98552.97;;;13.89;100.00
53116;BME280;39010;48.088;7.954;2022-10-14T09:56:07;98550.25;;;13.89;100.00
53116;BME280;39010;48.088;7.954;2022-10-14T09:58:37;98546.13;;;13.93;100.00
53116;BME280;39010;48.088;7.954;2022-10-14T10:01:05;98554.81;;;13.89;100.00
53116;BME280;39010;48.088;7.954;2022-10-14T10:03:34;98552.75;;;13.91;100.00
53116;BME280;39010;48.088;7.954;2022-10-14T10:06:11;98551.09;;;13.90;100.00
53116;BME280;39010;48.088;7.954;2022-10-14T10:08:52;98550.66;;;13.93;100.00
53116;BME280;39010;48.088;7.954;2022-10-14T10:11:26;98553.59;;;13.98;100.00
53116;BME280;39010;48.088;7.954;2022-10-14T10:13:54;98558.16;;;13.97;100.00
53116;BME280;39010;48.088;7.954;2022-10-14T10:16:26;98548.59;;;13.95;100.00
53116;BME280;39010;48.088;7.954;2022-10-14T10:19:18;98539.06;;;13.99;100.00
53116;BME280;39010;48.088;7.954;2022-10-14T10:21:45;98535.75;;;14.04;100.00
53116;BME280;39010;48.088;7.954;2022-10-14T10:24:21;98530.75;;;14.07;100.00
53116;BME280;39010;48.088;7.954;2022-10-14T10:26:54;98531.38;;;14.09;100.00
53116;BME280;39010;48.088;7.954;2022-10-14T10:29:22;98530.53;;;14.16;100.00
53116;BME280;39010;48.088;7.954;2022-10-14T10:39:54;98526.59;;;14.18;100.00
53116;BME280;39010;48.088;7.954;2022-10-14T10:42:33;98522.03;;;14.19;100.00
53116;BME280;39010;48.088;7.954;2022-10-14T10:45:30;98507.28;;;14.28;100.00
53116;BME280;39010;48.088;7.954;2022-10-14T10:51:03;98497.47;;;15.13;100.00
53116;BME280;39010;48.088;7.954;2022-10-14T10:53:48;98499.88;;;15.35;100.00
53116;BME280;39010;48.088;7.954;2022-10-14T11:02:14;98496.31;;;15.73;98.10
53116;BME280;39010;48.088;7.954;2022-10-14T11:04:46;98484.88;;;15.71;98.75
53116;BME280;39010;48.088;7.954;2022-10-14T11:10:58;98484.00;;;15.77;98.49
53116;BME280;39010;48.088;7.954;2022-10-14T11:13:55;98471.47;;;15.83;95.22
53116;BME280;39010;48.088;7.954;2022-10-14T11:16:30;98475.19;;;15.88;95.81
53116;BME280;39010;48.088;7.954;2022-10-14T11:27:09;98451.31;;;16.04;95.13
53116;BME280;39010;48.088;7.954;2022-10-14T11:35:04;98449.31;;;16.18;93.47
53116;BME280;39010;48.088;7.954;2022-10-14T11:37:56;98458.44;;;16.24;93.71
53116;BME280;39010;48.088;7.954;2022-10-14T11:40:51;98452.63;;;16.20;93.24
53116;BME280;39010;48.088;7.954;2022-10-14T11:46:21;98437.41;;;16.19;93.26
53116;BME280;39010;48.088;7.954;2022-10-14T11:49:03;98453.47;;;16.20;93.29
53116;BME280;39010;48.088;7.954;2022-10-14T11:51:39;98437.59;;;16.24;92.81
53116;BME280;39010;48.088;7.954;2022-10-14T11:54:14;98441.44;;;16.35;92.36
53116;BME280;39010;48.088;7.954;2022-10-14T11:59:45;98439.19;;;16.32;93.65
53116;BME280;39010;48.088;7.954;2022-10-14T12:02:48;98431.66;;;16.34;92.60
53116;BME280;39010;48.088;7.954;2022-10-14T12:08:38;98441.19;;;16.37;93.05
53116;BME280;39010;48.088;7.954;2022-10-14T12:11:22;98429.72;;;16.41;93.42
53116;BME280;39010;48.088;7.954;2022-10-14T12:13:54;98428.81;;;16.47;92.16
53116;BME280;39010;48.088;7.954;2022-10-14T12:16:23;98427.75;;;16.48;91.99
53116;BME280;39010;48.088;7.954;2022-10-14T12:18:53;98446.88;;;16.54;92.33
53116;BME280;39010;48.088;7.954;2022-10-14T12:22:17;98428.66;;;16.42;92.79
53116;BME280;39010;48.088;7.954;2022-10-14T12:24:23;98425.34;;;16.40;93.67
53116;BME280;39010;48.088;7.954;2022-10-14T12:26:59;98420.97;;;16.39;93.86
53116;BME280;39010;48.088;7.954;2022-10-14T12:29:30;98414.56;;;16.33;94.47
53116;BME280;39010;48.088;7.954;2022-10-14T12:34:47;98413.75;;;16.33;95.63
53116;BME280;39010;48.088;7.954;2022-10-14T12:40:21;98407.78;;;16.24;97.75
53116;BME280;39010;48.088;7.954;2022-10-14T12:45:20;98417.47;;;15.95;100.00
53116;BME280;39010;48.088;7.954;2022-10-14T12:48:04;98417.38;;;15.76;100.00
53116;BME280;39010;48.088;7.954;2022-10-14T12:50:36;98417.38;;;15.76;100.00
53116;BME280;39010;48.088;7.954;2022-10-14T12:53:21;98416.63;;;15.69;100.00
53116;BME280;39010;48.088;7.954;2022-10-14T12:55:51;98416.00;;;15.67;100.00
53116;BME280;39010;48.088;7.954;2022-10-14T12:58:33;98423.94;;;15.61;100.00
53116;BME280;39010;48.088;7.954;2022-10-14T13:01:18;98411.28;;;15.62;100.00
53116;BME280;39010;48.088;7.954;2022-10-14T13:06:41;98415.66;;;15.56;100.00
53116;BME280;39010;48.088;7.954;2022-10-14T13:14:33;98425.53;;;15.44;100.00
53116;BME280;39010;48.088;7.954;2022-10-14T13:17:45;98423.44;;;15.46;100.00
53116;BME280;39010;48.088;7.954;2022-10-14T13:23:30;98425.53;;;15.44;100.00
53116;BME280;39010;48.088;7.954;2022-10-14T13:26:17;98412.00;;;15.44;100.00
53116;BME280;39010;48.088;7.954;2022-10-14T13:29:05;98424.28;;;15.46;100.00
53116;BME280;39010;48.088;7.954;2022-10-14T13:34:56;98425.09;;;15.47;100.00
53116;BME280;39010;48.088;7.954;2022-10-14T13:37:33;98430.91;;;15.51;100.00
53116;BME280;39010;48.088;7.954;2022-10-14T13:40:22;98443.84;;;15.49;100.00
53116;BME280;39010;48.088;7.954;2022-10-14T13:42:52;98428.13;;;15.64;100.00
53116;BME280;39010;48.088;7.954;2022-10-14T13:45:27;98447.69;;;15.59;100.00
53116;BME280;39010;48.088;7.954;2022-10-14T13:47:54;98439.53;;;15.66;100.00
53116;BME280;39010;48.088;7.954;2022-10-14T13:50:22;98437.03;;;15.65;100.00
53116;BME280;39010;48.088;7.954;2022-10-14T13:52:55;98442.41;;;15.71;100.00
53116;BME280;39010;48.088;7.954;2022-10-14T13:55:24;98436.78;;;15.73;100.00
53116;BME280;39010;48.088;7.954;2022-10-14T14:00:57;98445.22;;;15.83;100.00
53116;BME280;39010;48.088;7.954;2022-10-14T14:03:33;98441.25;;;15.86;100.00
53116;BME280;39010;48.088;7.954;2022-10-14T14:06:02;98442.34;;;15.78;100.00
53116;BME280;39010;48.088;7.954;2022-10-14T14:08:39;98438.66;;;15.72;100.00
53116;BME280;39010;48.088;7.954;2022-10-14T14:11:16;98440.25;;;15.80;100.00
53116;BME280;39010;48.088;7.954;2022-10-14T14:13:48;98430.44;;;15.86;100.00
53116;BME280;39010;48.088;7.954;2022-10-14T14:16:38;98428.13;;;15.89;100.00
53116;BME280;39010;48.088;7.954;2022-10-14T14:19:16;98436.06;;;15.84;100.00
53116;BME280;39010;48.088;7.954;2022-10-14T14:21:43;98423.81;;;15.82;100.00
53116;BME280;39010;48.088;7.954;2022-10-14T14:24:23;98422.75;;;15.83;100.00
53116;BME280;39010;48.088;7.954;2022-10-14T14:26:52;98422.72;;;15.89;100.00
53116;BME280;39010;48.088;7.954;2022-10-14T14:29:25;98411.88;;;15.89;100.00
53116;BME280;39010;48.088;7.954;2022-10-14T14:31:52;98413.72;;;15.96;100.00
53116;BME280;39010;48.088;7.954;2022-10-14T14:34:33;98419.31;;;15.94;100.00
53116;BME280;39010;48.088;7.954;2022-10-14T14:37:02;98416.56;;;16.01;100.00
53116;BME280;39010;48.088;7.954;2022-10-14T14:39:59;98414.59;;;15.89;100.00
53116;BME280;39010;48.088;7.954;2022-10-14T14:42:34;98415.88;;;15.87;100.00